sensor_id;sensor_type;location;lat;lon;timestamp;pressure;altitude;pressure_sealevel;temperature;humidity
60373;BME280;46216;52.220;5.134;2023-07-13T00:00:29;101488.41;;;18.48;100.00
60373;BME280;46216;52.220;5.134;2023-07-13T00:02:56;101488.56;;;18.46;100.00
60373;BME280;46216;52.220;5.134;2023-07-13T00:05:25;101482.59;;;18.42;100.00
60373;BME280;46216;52.220;5.134;2023-07-13T00:07:52;101497.66;;;18.45;100.00
60373;BME280;46216;52.220;5.134;2023-07-13T00:10:17;101500.50;;;18.43;100.00
60373;BME280;46216;52.220;5.134;2023-07-13T00:12:44;101491.72;;;18.41;100.00
60373;BME280;46216;52.220;5.134;2023-07-13T00:15:20;101501.50;;;18.42;100.00
60373;BME280;46216;52.220;5.134;2023-07-13T00:17:52;101500.78;;;18.40;100.00
60373;BME280;46216;52.220;5.134;2023-07-13T00:20:18;101495.09;;;18.43;100.00
60373;BME280;46216;52.220;5.134;2023-07-13T00:22:49;101495.09;;;18.43;100.00
60373;BME280;46216;52.220;5.134;2023-07-13T00:25:16;101503.34;;;18.42;100.00
60373;BME280;46216;52.220;5.134;2023-07-13T00:27:43;101498.81;;;18.42;100.00
60373;BME280;46216;52.220;5.134;2023-07-13T00:30:09;101489.31;;;18.38;100.00
60373;BME280;46216;52.220;5.134;2023-07-13T00:32:36;101493.97;;;18.36;100.00
60373;BME280;46216;52.220;5.134;2023-07-13T00:35:03;101491.28;;;18.36;100.00
60373;BME280;46216;52.220;5.134;2023-07-13T00:37:30;101506.47;;;18.37;100.00
60373;BME280;46216;52.220;5.134;2023-07-13T00:39:55;101504.50;;;18.39;100.00
60373;BME280;46216;52.220;5.134;2023-07-13T00:42:21;101500.22;;;18.37;100.00
60373;BME280;46216;52.220;5.134;2023-07-13T00:47:27;101494.28;;;18.33;100.00
60373;BME280;46216;52.220;5.134;2023-07-13T00:49:53;101493.03;;;18.28;100.00
60373;BME280;46216;52.220;5.134;2023-07-13T00:52:19;101494.84;;;18.27;100.00
60373;BME280;46216;52.220;5.134;2023-07-13T00:54:46;101495.84;;;18.26;100.00
60373;BME280;46216;52.220;5.134;2023-07-13T00:57:15;101497.88;;;18.24;100.00
60373;BME280;46216;52.220;5.134;2023-07-13T00:59:43;101489.91;;;18.23;100.00
60373;BME280;46216;52.220;5.134;2023-07-13T01:02:11;101488.63;;;18.17;100.00
60373;BME280;46216;52.220;5.134;2023-07-13T01:04:36;101498.44;;;18.18;100.00
60373;BME280;46216;52.220;5.134;2023-07-13T01:07:05;101504.97;;;18.15;100.00
60373;BME280;46216;52.220;5.134;2023-07-13T01:09:31;101506.81;;;18.15;100.00
60373;BME280;46216;52.220;5.134;2023-07-13T01:11:57;101516.59;;;18.16;100.00
60373;BME280;46216;52.220;5.134;2023-07-13T01:14:24;101507.09;;;18.12;100.00
60373;BME280;46216;52.220;5.134;2023-07-13T01:16:50;101500.88;;;18.11;100.00
60373;BME280;46216;52.220;5.134;2023-07-13T01:21:42;101511.38;;;18.05;100.00
60373;BME280;46216;52.220;5.134;2023-07-13T01:24:09;101508.97;;;18.02;100.00
60373;BME280;46216;52.220;5.134;2023-07-13T01:26:34;101510.94;;;18.00;100.00
60373;BME280;46216;52.220;5.134;2023-07-13T01:29:00;101504.00;;;17.97;100.00
60373;BME280;46216;52.220;5.134;2023-07-13T01:31:25;101513.22;;;17.94;100.00
60373;BME280;46216;52.220;5.134;2023-07-13T01:33:51;101512.50;;;17.92;100.00
60373;BME280;46216;52.220;5.134;2023-07-13T01:36:17;101513.22;;;17.94;100.00
60373;BME280;46216;52.220;5.134;2023-07-13T01:38:42;101517.63;;;17.95;100.00
60373;BME280;46216;52.220;5.134;2023-07-13T01:41:08;101523.00;;;17.95;100.00
60373;BME280;46216;52.220;5.134;2023-07-13T01:43:33;101519.63;;;17.93;100.00
60373;BME280;46216;52.220;5.134;2023-07-13T01:45:59;101520.88;;;17.89;100.00
60373;BME280;46216;52.220;5.134;2023-07-13T01:48:24;101523.75;;;17.88;100.00
60373;BME280;46216;52.220;5.134;2023-07-13T01:50:50;101527.56;;;17.85;100.00
60373;BME280;46216;52.220;5.134;2023-07-13T01:53:18;101526.88;;;17.83;100.00
60373;BME280;46216;52.220;5.134;2023-07-13T01:55:44;101527.84;;;17.82;100.00
60373;BME280;46216;52.220;5.134;2023-07-13T01:58:09;101530.81;;;17.79;100.00
60373;BME280;46216;52.220;5.134;2023-07-13T02:00:38;101531.09;;;17.76;100.00
60373;BME280;46216;52.220;5.134;2023-07-13T02:03:03;101528.69;;;17.73;100.00
60373;BME280;46216;52.220;5.134;2023-07-13T02:05:29;101533.47;;;17.69;100.00
60373;BME280;46216;52.220;5.134;2023-07-13T02:07:54;101525.53;;;17.68;100.00
60373;BME280;46216;52.220;5.134;2023-07-13T02:10:20;101527.66;;;17.64;100.00
60373;BME280;46216;52.220;5.134;2023-07-13T02:12:45;101537.88;;;17.61;100.00
60373;BME280;46216;52.220;5.134;2023-07-13T02:15:11;101538.56;;;17.63;100.00
60373;BME280;46216;52.220;5.134;2023-07-13T02:17:37;101528.38;;;17.57;100.00
60373;BME280;46216;52.220;5.134;2023-07-13T02:20:03;101546.09;;;17.59;100.00
60373;BME280;46216;52.220;5.134;2023-07-13T02:22:30;101547.25;;;17.57;100.00
60373;BME280;46216;52.220;5.134;2023-07-13T02:24:56;101554.59;;;17.55;100.00
60373;BME280;46216;52.220;5.134;2023-07-13T02:27:21;101558.31;;;17.54;100.00
60373;BME280;46216;52.220;5.134;2023-07-13T02:29:47;101554.59;;;17.55;100.00
60373;BME280;46216;52.220;5.134;2023-07-13T02:32:12;101552.19;;;17.52;100.00
60373;BME280;46216;52.220;5.134;2023-07-13T02:34:38;101555.88;;;17.50;100.00
60373;BME280;46216;52.220;5.134;2023-07-13T02:37:04;101550.63;;;17.49;100.00
60373;BME280;46216;52.220;5.134;2023-07-13T02:39:29;101547.34;;;17.45;100.00
60373;BME280;46216;52.220;5.134;2023-07-13T02:41:58;101567.22;;;17.44;100.00
60373;BME280;46216;52.220;5.134;2023-07-13T02:44:24;101556.44;;;17.44;100.00
60373;BME280;46216;52.220;5.134;2023-07-13T02:46:50;101561.81;;;17.44;100.00
60373;BME280;46216;52.220;5.134;2023-07-13T02:49:15;101558.41;;;17.42;100.00
60373;BME280;46216;52.220;5.134;2023-07-13T02:51:41;101562.69;;;17.45;100.00
60373;BME280;46216;52.220;5.134;2023-07-13T02:54:06;101564.53;;;17.44;100.00
60373;BME280;46216;52.220;5.134;2023-07-13T02:56:34;101558.69;;;17.49;100.00
60373;BME280;46216;52.220;5.134;2023-07-13T02:58:59;101560.44;;;17.50;100.00
60373;BME280;46216;52.220;5.134;2023-07-13T03:01:25;101562.97;;;17.52;100.00
60373;BME280;46216;52.220;5.134;2023-07-13T03:03:52;101557.59;;;17.52;100.00
60373;BME280;46216;52.220;5.134;2023-07-13T03:06:18;101561.00;;;17.54;100.00
60373;BME280;46216;52.220;5.134;2023-07-13T03:08:44;101564.38;;;17.56;100.00
60373;BME280;46216;52.220;5.134;2023-07-13T03:11:12;101564.38;;;17.56;100.00
60373;BME280;46216;52.220;5.134;2023-07-13T03:13:40;101558.31;;;17.54;100.00
60373;BME280;46216;52.220;5.134;2023-07-13T03:16:07;101567.09;;;17.56;100.00
60373;BME280;46216;52.220;5.134;2023-07-13T03:18:33;101567.97;;;17.56;100.00
60373;BME280;46216;52.220;5.134;2023-07-13T03:20:58;101567.53;;;17.61;100.00
60373;BME280;46216;52.220;5.134;2023-07-13T03:23:24;101564.00;;;17.60;100.00
60373;BME280;46216;52.220;5.134;2023-07-13T03:26:22;101559.00;;;17.56;100.00
60373;BME280;46216;52.220;5.134;2023-07-13T03:28:48;101566.53;;;17.62;100.00
60373;BME280;46216;52.220;5.134;2023-07-13T03:31:19;101557.44;;;17.63;100.00
60373;BME280;46216;52.220;5.134;2023-07-13T03:33:45;101564.84;;;17.61;100.00
60373;BME280;46216;52.220;5.134;2023-07-13T03:36:17;101577.03;;;17.65;100.00
60373;BME280;46216;52.220;5.134;2023-07-13T03:38:48;101567.84;;;17.67;100.00
60373;BME280;46216;52.220;5.134;2023-07-13T03:41:15;101572.09;;;17.70;100.00
60373;BME280;46216;52.220;5.134;2023-07-13T03:43:40;101572.94;;;17.70;100.00
60373;BME280;46216;52.220;5.134;2023-07-13T03:46:06;101573.63;;;17.72;100.00
60373;BME280;46216;52.220;5.134;2023-07-13T03:48:32;101581.88;;;17.71;100.00
60373;BME280;46216;52.220;5.134;2023-07-13T03:50:57;101572.09;;;17.70;100.00
60373;BME280;46216;52.220;5.134;2023-07-13T03:53:23;101582.16;;;17.68;100.00
60373;BME280;46216;52.220;5.134;2023-07-13T03:55:48;101577.78;;;17.67;100.00
60373;BME280;46216;52.220;5.134;2023-07-13T04:00:56;101582.72;;;17.62;100.00
60373;BME280;46216;52.220;5.134;2023-07-13T04:03:23;101584.97;;;17.57;100.00
60373;BME280;46216;52.220;5.134;2023-07-13T04:05:48;101592.34;;;17.55;100.00
60373;BME280;46216;52.220;5.134;2023-07-13T04:08:14;101595.19;;;17.53;100.00
60373;BME280;46216;52.220;5.134;2023-07-13T04:10:40;101594.75;;;17.48;100.00
60373;BME280;46216;52.220;5.134;2023-07-13T04:13:05;101603.38;;;17.42;100.00
60373;BME280;46216;52.220;5.134;2023-07-13T04:15:31;101604.78;;;17.36;100.00
60373;BME280;46216;52.220;5.134;2023-07-13T04:17:58;101605.06;;;17.33;100.00
60373;BME280;46216;52.220;5.134;2023-07-13T04:20:25;101612.28;;;17.33;100.00
60373;BME280;46216;52.220;5.134;2023-07-13T04:22:51;101604.22;;;17.33;100.00
60373;BME280;46216;52.220;5.134;2023-07-13T04:25:17;101605.44;;;17.29;100.00
60373;BME280;46216;52.220;5.134;2023-07-13T04:27:42;101602.19;;;17.25;100.00
60373;BME280;46216;52.220;5.134;2023-07-13T04:30:08;101605.13;;;17.22;100.00
60373;BME280;46216;52.220;5.134;2023-07-13T04:32:33;101602.31;;;17.23;100.00
60373;BME280;46216;52.220;5.134;2023-07-13T04:34:59;101621.03;;;17.25;100.00
60373;BME280;46216;52.220;5.134;2023-07-13T04:37:26;101616.78;;;17.22;100.00
60373;BME280;46216;52.220;5.134;2023-07-13T04:39:52;101615.22;;;17.20;100.00
60373;BME280;46216;52.220;5.134;2023-07-13T04:42:18;101627.00;;;17.19;100.00
60373;BME280;46216;52.220;5.134;2023-07-13T04:44:48;101620.13;;;17.15;100.00
60373;BME280;46216;52.220;5.134;2023-07-13T04:47:14;101617.19;;;17.18;100.00
60373;BME280;46216;52.220;5.134;2023-07-13T04:49:40;101621.72;;;17.17;100.00
60373;BME280;46216;52.220;5.134;2023-07-13T04:52:06;101621.59;;;17.19;100.00
60373;BME280;46216;52.220;5.134;2023-07-13T04:54:33;101621.59;;;17.19;100.00
60373;BME280;46216;52.220;5.134;2023-07-13T04:57:01;101618.75;;;17.20;100.00
60373;BME280;46216;52.220;5.134;2023-07-13T04:59:27;101627.31;;;17.25;100.00
60373;BME280;46216;52.220;5.134;2023-07-13T05:01:53;101619.22;;;17.25;100.00
60373;BME280;46216;52.220;5.134;2023-07-13T05:04:19;101622.03;;;17.24;100.00
60373;BME280;46216;52.220;5.134;2023-07-13T05:06:44;101625.47;;;17.26;100.00
60373;BME280;46216;52.220;5.134;2023-07-13T05:09:10;101634.69;;;17.33;100.00
60373;BME280;46216;52.220;5.134;2023-07-13T05:11:43;101633.28;;;17.29;100.00
60373;BME280;46216;52.220;5.134;2023-07-13T05:14:08;101640.34;;;17.30;100.00
60373;BME280;46216;52.220;5.134;2023-07-13T05:16:35;101648.47;;;17.40;100.00
60373;BME280;46216;52.220;5.134;2023-07-13T05:19:02;101653.44;;;17.44;100.00
60373;BME280;46216;52.220;5.134;2023-07-13T05:21:30;101656.44;;;17.51;100.00
60373;BME280;46216;52.220;5.134;2023-07-13T05:24:02;101650.78;;;17.54;100.00
60373;BME280;46216;52.220;5.134;2023-07-13T05:26:31;101657.75;;;17.57;100.00
60373;BME280;46216;52.220;5.134;2023-07-13T05:28:57;101660.75;;;17.63;100.00
60373;BME280;46216;52.220;5.134;2023-07-13T05:31:23;101660.59;;;17.65;100.00
60373;BME280;46216;52.220;5.134;2023-07-13T05:33:48;101664.59;;;17.70;100.00
60373;BME280;46216;52.220;5.134;2023-07-13T05:36:14;101656.06;;;17.65;100.00
60373;BME280;46216;52.220;5.134;2023-07-13T05:38:40;101658.38;;;17.70;100.00
60373;BME280;46216;52.220;5.134;2023-07-13T05:41:05;101673.44;;;17.82;100.00
60373;BME280;46216;52.220;5.134;2023-07-13T05:43:31;101672.06;;;17.88;100.00
60373;BME280;46216;52.220;5.134;2023-07-13T05:45:57;101666.97;;;17.94;100.00
60373;BME280;46216;52.220;5.134;2023-07-13T05:48:23;101664.00;;;17.98;100.00
60373;BME280;46216;52.220;5.134;2023-07-13T05:50:49;101664.28;;;18.04;100.00
60373;BME280;46216;52.220;5.134;2023-07-13T05:53:14;101674.38;;;18.12;100.00
60373;BME280;46216;52.220;5.134;2023-07-13T05:55:42;101670.97;;;18.19;100.00
60373;BME280;46216;52.220;5.134;2023-07-13T05:58:08;101674.94;;;18.25;100.00
60373;BME280;46216;52.220;5.134;2023-07-13T06:00:33;101690.00;;;18.37;100.00
60373;BME280;46216;52.220;5.134;2023-07-13T06:02:59;101684.31;;;18.40;100.00
60373;BME280;46216;52.220;5.134;2023-07-13T06:05:24;101674.66;;;18.48;100.00
60373;BME280;46216;52.220;5.134;2023-07-13T06:07:50;101685.72;;;18.54;100.00
60373;BME280;46216;52.220;5.134;2023-07-13T06:10:15;101681.78;;;18.58;100.00
60373;BME280;46216;52.220;5.134;2023-07-13T06:12:41;101689.44;;;18.63;100.00
60373;BME280;46216;52.220;5.134;2023-07-13T06:15:14;101684.59;;;18.57;100.00
60373;BME280;46216;52.220;5.134;2023-07-13T06:17:40;101693.53;;;18.57;100.00
60373;BME280;46216;52.220;5.134;2023-07-13T06:20:08;101693.69;;;18.56;100.00
60373;BME280;46216;52.220;5.134;2023-07-13T06:22:33;101692.13;;;18.53;100.00
60373;BME280;46216;52.220;5.134;2023-07-13T06:24:59;101689.59;;;18.52;100.00
60373;BME280;46216;52.220;5.134;2023-07-13T06:27:24;101691.41;;;18.61;100.00
60373;BME280;46216;52.220;5.134;2023-07-13T06:29:50;101694.53;;;18.66;100.00
60373;BME280;46216;52.220;5.134;2023-07-13T06:32:16;101698.81;;;18.68;100.00
60373;BME280;46216;52.220;5.134;2023-07-13T06:34:42;101698.81;;;18.68;100.00
60373;BME280;46216;52.220;5.134;2023-07-13T06:37:09;101685.75;;;18.74;100.00
60373;BME280;46216;52.220;5.134;2023-07-13T06:39:35;101685.31;;;18.78;100.00
60373;BME280;46216;52.220;5.134;2023-07-13T06:42:00;101685.28;;;18.88;100.00
60373;BME280;46216;52.220;5.134;2023-07-13T06:44:26;101694.50;;;18.95;100.00
60373;BME280;46216;52.220;5.134;2023-07-13T06:46:54;101707.88;;;19.06;100.00
60373;BME280;46216;52.220;5.134;2023-07-13T06:49:20;101719.78;;;19.23;100.00
60373;BME280;46216;52.220;5.134;2023-07-13T06:51:45;101709.53;;;19.27;100.00
60373;BME280;46216;52.220;5.134;2023-07-13T06:54:11;101708.41;;;19.20;100.00
60373;BME280;46216;52.220;5.134;2023-07-13T06:56:36;101726.34;;;19.01;100.00
60373;BME280;46216;52.220;5.134;2023-07-13T06:59:05;101754.56;;;18.79;100.00
60373;BME280;46216;52.220;5.134;2023-07-13T07:01:30;101755.50;;;18.39;100.00
60373;BME280;46216;52.220;5.134;2023-07-13T07:03:55;101730.72;;;18.05;100.00
60373;BME280;46216;52.220;5.134;2023-07-13T07:06:22;101726.97;;;17.77;100.00
60373;BME280;46216;52.220;5.134;2023-07-13T07:08:52;101725.41;;;17.54;100.00
60373;BME280;46216;52.220;5.134;2023-07-13T07:11:20;101743.06;;;17.37;100.00
60373;BME280;46216;52.220;5.134;2023-07-13T07:13:47;101757.47;;;17.26;100.00
60373;BME280;46216;52.220;5.134;2023-07-13T07:16:16;101757.59;;;17.03;100.00
60373;BME280;46216;52.220;5.134;2023-07-13T07:18:42;101755.59;;;16.85;100.00
60373;BME280;46216;52.220;5.134;2023-07-13T07:21:07;101766.78;;;16.69;100.00
60373;BME280;46216;52.220;5.134;2023-07-13T07:23:33;101753.91;;;16.51;100.00
60373;BME280;46216;52.220;5.134;2023-07-13T07:25:59;101754.78;;;16.41;100.00
60373;BME280;46216;52.220;5.134;2023-07-13T07:28:24;101762.50;;;16.34;100.00
60373;BME280;46216;52.220;5.134;2023-07-13T07:30:53;101758.34;;;16.30;100.00
60373;BME280;46216;52.220;5.134;2023-07-13T07:33:19;101754.94;;;16.28;100.00
60373;BME280;46216;52.220;5.134;2023-07-13T07:35:44;101741.59;;;16.26;100.00
60373;BME280;46216;52.220;5.134;2023-07-13T07:38:10;101747.59;;;16.30;100.00
60373;BME280;46216;52.220;5.134;2023-07-13T07:40:39;101751.88;;;16.32;100.00
60373;BME280;46216;52.220;5.134;2023-07-13T07:43:06;101746.84;;;16.39;100.00
60373;BME280;46216;52.220;5.134;2023-07-13T07:45:32;101750.72;;;16.46;100.00
60373;BME280;46216;52.220;5.134;2023-07-13T07:47:57;101758.03;;;16.55;100.00
60373;BME280;46216;52.220;5.134;2023-07-13T07:50:27;101760.41;;;16.70;100.00
60373;BME280;46216;52.220;5.134;2023-07-13T07:52:53;101763.69;;;16.85;100.00
60373;BME280;46216;52.220;5.134;2023-07-13T07:55:18;101763.50;;;16.97;100.00
60373;BME280;46216;52.220;5.134;2023-07-13T07:57:44;101764.16;;;17.11;100.00
60373;BME280;46216;52.220;5.134;2023-07-13T08:00:13;101770.72;;;17.18;100.00
60373;BME280;46216;52.220;5.134;2023-07-13T08:02:39;101762.72;;;17.27;100.00
60373;BME280;46216;52.220;5.134;2023-07-13T08:05:09;101749.13;;;17.29;100.00
60373;BME280;46216;52.220;5.134;2023-07-13T08:07:38;101755.41;;;17.39;100.00
60373;BME280;46216;52.220;5.134;2023-07-13T08:10:05;101751.91;;;17.48;100.00
60373;BME280;46216;52.220;5.134;2023-07-13T08:12:38;101751.53;;;17.63;100.00
60373;BME280;46216;52.220;5.134;2023-07-13T08:15:05;101760.41;;;17.74;100.00
60373;BME280;46216;52.220;5.134;2023-07-13T08:17:31;101765.13;;;17.82;100.00
60373;BME280;46216;52.220;5.134;2023-07-13T08:19:57;101770.00;;;17.88;100.00
60373;BME280;46216;52.220;5.134;2023-07-13T08:22:22;101777.34;;;17.86;100.00
60373;BME280;46216;52.220;5.134;2023-07-13T08:24:48;101777.78;;;17.82;100.00
60373;BME280;46216;52.220;5.134;2023-07-13T08:27:20;101770.94;;;17.78;100.00
60373;BME280;46216;52.220;5.134;2023-07-13T08:29:47;101765.22;;;17.71;100.00
60373;BME280;46216;52.220;5.134;2023-07-13T08:32:13;101771.03;;;17.66;100.00
60373;BME280;46216;52.220;5.134;2023-07-13T08:34:39;101780.28;;;17.53;100.00
60373;BME280;46216;52.220;5.134;2023-07-13T08:37:05;101783.06;;;17.41;100.00
60373;BME280;46216;52.220;5.134;2023-07-13T08:39:32;101778.03;;;17.27;100.00
60373;BME280;46216;52.220;5.134;2023-07-13T08:42:01;101791.31;;;17.19;100.00
60373;BME280;46216;52.220;5.134;2023-07-13T08:47:18;101788.28;;;17.12;100.00
60373;BME280;46216;52.220;5.134;2023-07-13T08:49:46;101796.47;;;17.11;100.00
60373;BME280;46216;52.220;5.134;2023-07-13T08:52:36;101786.56;;;17.11;100.00
60373;BME280;46216;52.220;5.134;2023-07-13T08:55:09;101786.88;;;17.18;100.00
60373;BME280;46216;52.220;5.134;2023-07-13T08:57:37;101773.50;;;17.27;100.00
60373;BME280;46216;52.220;5.134;2023-07-13T09:00:07;101777.81;;;17.40;100.00
60373;BME280;46216;52.220;5.134;2023-07-13T09:02:42;101789.03;;;17.45;100.00
60373;BME280;46216;52.220;5.134;2023-07-13T09:15:35;101795.78;;;17.30;100.00
60373;BME280;46216;52.220;5.134;2023-07-13T09:18:11;101791.31;;;17.40;100.00
60373;BME280;46216;52.220;5.134;2023-07-13T09:20:52;101799.13;;;17.43;100.00
60373;BME280;46216;52.220;5.134;2023-07-13T09:23:21;101797.72;;;17.48;100.00
60373;BME280;46216;52.220;5.134;2023-07-13T09:25:49;101799.63;;;17.58;100.00
60373;BME280;46216;52.220;5.134;2023-07-13T09:28:24;101805.75;;;17.69;100.00
60373;BME280;46216;52.220;5.134;2023-07-13T09:31:06;101802.47;;;17.77;100.00
60373;BME280;46216;52.220;5.134;2023-07-13T09:33:31;101807.47;;;17.91;100.00
60373;BME280;46216;52.220;5.134;2023-07-13T09:35:58;101801.13;;;18.02;100.00
60373;BME280;46216;52.220;5.134;2023-07-13T09:38:27;101801.91;;;18.14;100.00
60373;BME280;46216;52.220;5.134;2023-07-13T09:41:04;101806.72;;;18.20;100.00
60373;BME280;46216;52.220;5.134;2023-07-13T09:43:34;101804.47;;;18.25;100.00
60373;BME280;46216;52.220;5.134;2023-07-13T09:45:59;101799.09;;;18.35;100.00
60373;BME280;46216;52.220;5.134;2023-07-13T09:48:25;101797.66;;;18.40;100.00
60373;BME280;46216;52.220;5.134;2023-07-13T09:50:55;101805.91;;;18.39;100.00
60373;BME280;46216;52.220;5.134;2023-07-13T09:53:22;101807.31;;;18.33;100.00
60373;BME280;46216;52.220;5.134;2023-07-13T09:55:49;101814.72;;;18.31;100.00
60373;BME280;46216;52.220;5.134;2023-07-13T09:58:18;101815.41;;;18.33;100.00
60373;BME280;46216;52.220;5.134;2023-07-13T10:00:57;101816.41;;;18.32;100.00
60373;BME280;46216;52.220;5.134;2023-07-13T10:03:27;101811.91;;;18.42;100.00
60373;BME280;46216;52.220;5.134;2023-07-13T10:05:53;101804.50;;;18.54;100.00
60373;BME280;46216;52.220;5.134;2023-07-13T10:08:28;101807.66;;;18.59;100.00
60373;BME280;46216;52.220;5.134;2023-07-13T10:13:36;101807.66;;;18.59;100.00
60373;BME280;46216;52.220;5.134;2023-07-13T10:16:03;101803.94;;;18.51;100.00
60373;BME280;46216;52.220;5.134;2023-07-13T10:18:37;101803.94;;;18.51;100.00
60373;BME280;46216;52.220;5.134;2023-07-13T10:21:11;101811.63;;;18.46;100.00
60373;BME280;46216;52.220;5.134;2023-07-13T10:23:37;101805.38;;;18.45;100.00
60373;BME280;46216;52.220;5.134;2023-07-13T10:26:05;101810.22;;;18.51;100.00
60373;BME280;46216;52.220;5.134;2023-07-13T10:28:36;101809.22;;;18.62;100.00
60373;BME280;46216;52.220;5.134;2023-07-13T10:31:10;101803.41;;;18.66;100.00
60373;BME280;46216;52.220;5.134;2023-07-13T10:33:37;101805.94;;;18.68;100.00
60373;BME280;46216;52.220;5.134;2023-07-13T10:36:34;101806.81;;;18.68;100.00
60373;BME280;46216;52.220;5.134;2023-07-13T10:39:05;101802.56;;;18.66;100.00
60373;BME280;46216;52.220;5.134;2023-07-13T10:41:38;101810.66;;;18.66;100.00
60373;BME280;46216;52.220;5.134;2023-07-13T10:44:13;101817.34;;;18.62;100.00
60373;BME280;46216;52.220;5.134;2023-07-13T10:46:43;101813.91;;;18.60;100.00
60373;BME280;46216;52.220;5.134;2023-07-13T10:49:11;101818.59;;;18.58;100.00
60373;BME280;46216;52.220;5.134;2023-07-13T10:51:37;101815.31;;;18.54;100.00
60373;BME280;46216;52.220;5.134;2023-07-13T10:56:50;101817.06;;;18.65;100.00
60373;BME280;46216;52.220;5.134;2023-07-13T10:59:25;101822.19;;;18.87;100.00
60373;BME280;46216;52.220;5.134;2023-07-13T11:02:10;101818.50;;;19.08;100.00
60373;BME280;46216;52.220;5.134;2023-07-13T11:04:46;101816.66;;;19.18;100.00
60373;BME280;46216;52.220;5.134;2023-07-13T11:07:25;101821.47;;;19.44;100.00
60373;BME280;46216;52.220;5.134;2023-07-13T11:09:53;101809.72;;;19.72;100.00
60373;BME280;46216;52.220;5.134;2023-07-13T11:19:53;101818.34;;;19.95;100.00
60373;BME280;46216;52.220;5.134;2023-07-13T11:22:25;101816.47;;;19.96;100.00
60373;BME280;46216;52.220;5.134;2023-07-13T11:25:00;101819.91;;;19.98;100.00
60373;BME280;46216;52.220;5.134;2023-07-13T11:27:42;101815.25;;;20.18;100.00
60373;BME280;46216;52.220;5.134;2023-07-13T11:33:17;101808.88;;;20.09;100.00
60373;BME280;46216;52.220;5.134;2023-07-13T11:36:15;101808.78;;;20.28;100.00
60373;BME280;46216;52.220;5.134;2023-07-13T11:38:43;101807.94;;;20.46;100.00
60373;BME280;46216;52.220;5.134;2023-07-13T11:41:21;101818.03;;;20.71;100.00
60373;BME280;46216;52.220;5.134;2023-07-13T11:43:54;101824.47;;;20.70;100.00
60373;BME280;46216;52.220;5.134;2023-07-13T11:46:26;101808.63;;;20.75;100.00
60373;BME280;46216;52.220;5.134;2023-07-13T11:48:53;101806.28;;;20.81;100.00
60373;BME280;46216;52.220;5.134;2023-07-13T11:51:29;101806.03;;;20.92;100.00
60373;BME280;46216;52.220;5.134;2023-07-13T11:53:56;101804.81;;;21.04;100.00
60373;BME280;46216;52.220;5.134;2023-07-13T11:56:24;101805.16;;;21.27;100.00
60373;BME280;46216;52.220;5.134;2023-07-13T11:58:53;101813.13;;;21.46;100.00
60373;BME280;46216;52.220;5.134;2023-07-13T12:01:28;101808.41;;;21.48;100.00
60373;BME280;46216;52.220;5.134;2023-07-13T12:03:58;101814.75;;;21.57;100.00
60373;BME280;46216;52.220;5.134;2023-07-13T12:06:35;101814.44;;;21.68;100.00
60373;BME280;46216;52.220;5.134;2023-07-13T12:09:13;101795.00;;;21.47;100.00
60373;BME280;46216;52.220;5.134;2023-07-13T12:11:42;101808.06;;;21.52;100.00
60373;BME280;46216;52.220;5.134;2023-07-13T12:14:18;101806.31;;;21.68;100.00
60373;BME280;46216;52.220;5.134;2023-07-13T12:16:46;101810.28;;;21.56;100.00
60373;BME280;46216;52.220;5.134;2023-07-13T12:19:41;101804.72;;;21.58;100.00
60373;BME280;46216;52.220;5.134;2023-07-13T12:22:12;101799.53;;;21.64;100.00
60373;BME280;46216;52.220;5.134;2023-07-13T12:24:40;101791.78;;;21.78;100.00
60373;BME280;46216;52.220;5.134;2023-07-13T12:27:06;101792.19;;;21.91;100.00
60373;BME280;46216;52.220;5.134;2023-07-13T12:29:32;101783.88;;;21.92;100.00
60373;BME280;46216;52.220;5.134;2023-07-13T12:31:58;101794.56;;;21.94;100.00
60373;BME280;46216;52.220;5.134;2023-07-13T12:34:26;101808.72;;;21.71;100.00
60373;BME280;46216;52.220;5.134;2023-07-13T12:36:59;101797.44;;;21.92;100.00
60373;BME280;46216;52.220;5.134;2023-07-13T12:39:45;101806.75;;;21.90;100.00
60373;BME280;46216;52.220;5.134;2023-07-13T12:44:43;101791.84;;;21.94;100.00
60373;BME280;46216;52.220;5.134;2023-07-13T12:47:12;101796.16;;;21.70;100.00
60373;BME280;46216;52.220;5.134;2023-07-13T12:49:54;101797.75;;;21.81;100.00
60373;BME280;46216;52.220;5.134;2023-07-13T12:52:29;101790.84;;;21.95;100.00
60373;BME280;46216;52.220;5.134;2023-07-13T12:55:06;101796.75;;;21.90;100.00
60373;BME280;46216;52.220;5.134;2023-07-13T12:57:48;101793.69;;;21.85;100.00
60373;BME280;46216;52.220;5.134;2023-07-13T13:00:28;101803.44;;;22.04;100.00
60373;BME280;46216;52.220;5.134;2023-07-13T13:02:58;101806.63;;;22.26;100.00
60373;BME280;46216;52.220;5.134;2023-07-13T13:05:31;101813.25;;;21.97;100.00
60373;BME280;46216;52.220;5.134;2023-07-13T13:08:00;101810.16;;;21.92;100.00
60373;BME280;46216;52.220;5.134;2023-07-13T13:10:25;101812.63;;;21.77;100.00
60373;BME280;46216;52.220;5.134;2023-07-13T13:12:52;101811.91;;;22.01;100.00
60373;BME280;46216;52.220;5.134;2023-07-13T13:15:18;101808.81;;;22.22;100.00
60373;BME280;46216;52.220;5.134;2023-07-13T13:17:44;101812.03;;;22.26;100.00
60373;BME280;46216;52.220;5.134;2023-07-13T13:20:18;101810.03;;;22.36;100.00
60373;BME280;46216;52.220;5.134;2023-07-13T13:22:45;101811.91;;;22.43;100.00
60373;BME280;46216;52.220;5.134;2023-07-13T13:25:11;101820.72;;;22.37;100.00